Time;durP1;ratioP1;P1;durP2;ratioP2;P2;SDS_P1;SDS_P2;PMS_P1;PMS_P2;Temp;Humidity;BMP_temperature;BMP_pressure;BME280_temperature;BME280_humidity;BME280_pressure;Samples;Min_cycle;Max_cycle;Signal;HPM_P1;HPM_P2
2022/12/09 00:01:14;;;;;;;25.50;18.35;;;25.20;99.90;;;;;;5070072;28;20021;-65
2022/12/09 00:03:42;;;;;;;26.10;18.35;;;25.20;99.90;;;;;;5064198;28;20017;-65
2022/12/09 00:06:14;;;;;;;30.38;18.73;;;25.20;99.90;;;;;;5055077;28;20021;-64
2022/12/09 00:08:41;;;;;;;28.50;18.75;;;25.20;99.90;;;;;;5054886;28;20104;-64
2022/12/09 00:11:08;;;;;;;30.77;19.25;;;25.20;99.90;;;;;;5062655;28;20033;-63
2022/12/09 00:13:35;;;;;;;31.73;19.45;;;25.20;99.90;;;;;;5057269;28;20031;-64
2022/12/09 00:16:14;;;;;;;26.80;18.23;;;25.20;99.90;;;;;;5054719;28;20028;-63
2022/12/09 00:18:41;;;;;;;31.35;19.70;;;25.20;99.90;;;;;;5054690;28;20029;-65
2022/12/09 00:21:24;;;;;;;27.48;19.67;;;25.20;99.90;;;;;;5054659;28;20029;-65
2022/12/09 00:23:53;;;;;;;33.80;18.48;;;25.20;99.90;;;;;;5054769;28;20147;-65
2022/12/09 00:26:22;;;;;;;26.60;18.73;;;25.20;99.90;;;;;;5054732;28;20024;-65
2022/12/09 00:28:49;;;;;;;29.98;18.77;;;25.20;99.90;;;;;;5054802;28;20029;-64
2022/12/09 00:31:22;;;;;;;77.18;61.72;;;25.30;99.90;;;;;;5055900;28;20071;-64
2022/12/09 00:33:49;;;;;;;44.25;36.78;;;25.30;99.90;;;;;;5057509;28;20362;-65
2022/12/09 00:36:20;;;;;;;26.48;18.70;;;25.30;99.90;;;;;;5062963;28;20028;-64
2022/12/09 00:38:47;;;;;;;25.98;17.98;;;25.30;99.90;;;;;;5062471;28;20091;-64
2022/12/09 00:41:15;;;;;;;27.27;16.02;;;25.30;99.90;;;;;;5063219;28;20020;-65
2022/12/09 00:43:43;;;;;;;29.98;19.67;;;25.40;99.90;;;;;;5062380;28;20021;-65
2022/12/09 00:46:11;;;;;;;29.83;16.90;;;25.40;99.90;;;;;;5063736;28;20487;-65
2022/12/09 00:48:37;;;;;;;41.63;28.42;;;25.40;99.90;;;;;;5062809;28;20028;-65
2022/12/09 00:51:06;;;;;;;43.70;32.53;;;25.50;99.90;;;;;;5061498;28;20028;-65
2022/12/09 00:53:32;;;;;;;25.95;18.30;;;25.50;99.90;;;;;;5063088;28;20096;-65
2022/12/09 00:55:59;;;;;;;27.02;16.13;;;25.50;99.90;;;;;;5061862;28;20019;-65
2022/12/09 00:58:26;;;;;;;25.45;16.52;;;25.50;99.90;;;;;;5062084;28;20024;-64
2022/12/09 01:00:52;;;;;;;23.13;15.82;;;25.40;99.90;;;;;;5062643;28;20028;-64
2022/12/09 01:03:20;;;;;;;24.52;15.38;;;25.40;99.90;;;;;;5067115;28;20069;-63
2022/12/09 01:05:46;;;;;;;21.67;14.88;;;25.40;99.90;;;;;;5054492;28;20029;-64
2022/12/09 01:08:14;;;;;;;18.77;13.45;;;25.50;99.90;;;;;;5054940;28;20025;-64
2022/12/09 01:10:43;;;;;;;19.13;14.18;;;25.40;99.90;;;;;;5054437;28;20100;-65
2022/12/09 01:13:10;;;;;;;25.45;15.35;;;25.50;99.90;;;;;;5058059;28;20462;-65
2022/12/09 01:15:38;;;;;;;21.33;14.65;;;25.50;99.90;;;;;;5065901;28;20009;-64
2022/12/09 01:18:05;;;;;;;17.02;13.65;;;25.60;99.90;;;;;;5061095;28;20052;-64
2022/12/09 01:20:33;;;;;;;28.15;15.00;;;25.60;99.90;;;;;;5055143;28;20050;-64
2022/12/09 01:23:00;;;;;;;19.52;14.13;;;25.60;99.90;;;;;;5056996;28;20053;-64
2022/12/09 01:25:26;;;;;;;21.60;14.20;;;25.60;99.90;;;;;;5055009;28;20417;-64
2022/12/09 01:27:53;;;;;;;25.08;13.88;;;25.70;99.90;;;;;;5055027;28;20021;-64
2022/12/09 01:30:19;;;;;;;23.73;12.68;;;25.70;99.90;;;;;;5055445;28;20490;-65
2022/12/09 01:32:46;;;;;;;16.63;11.18;;;25.70;99.90;;;;;;5055048;28;20017;-65
2022/12/09 01:35:13;;;;;;;16.45;11.02;;;25.80;99.90;;;;;;5053931;28;20385;-65
2022/12/09 01:37:39;;;;;;;18.42;10.80;;;25.80;99.90;;;;;;5055617;28;20031;-65
2022/12/09 01:40:17;;;;;;;56.70;37.00;;;25.90;99.90;;;;;;5055966;28;20062;-65
2022/12/09 01:42:44;;;;;;;32.15;22.25;;;25.90;99.90;;;;;;5060069;28;20029;-65
2022/12/09 01:45:21;;;;;;;17.50;13.95;;;25.90;99.90;;;;;;5057695;28;20137;-63
2022/12/09 01:47:55;;;;;;;17.63;11.13;;;25.90;99.90;;;;;;5058797;28;20098;-65
2022/12/09 01:50:25;;;;;;;21.55;13.93;;;26.00;99.90;;;;;;5065695;28;20020;-65
2022/12/09 01:52:51;;;;;;;54.20;41.03;;;26.00;99.90;;;;;;5066153;28;20028;-65
2022/12/09 01:55:18;;;;;;;124.25;90.43;;;26.00;99.90;;;;;;5066629;28;20115;-65
2022/12/09 01:57:45;;;;;;;27.42;17.42;;;26.10;99.90;;;;;;5067472;28;20500;-64
2022/12/09 02:00:12;;;;;;;21.20;14.55;;;26.10;99.90;;;;;;5070492;28;20024;-65
2022/12/09 02:02:39;;;;;;;16.85;11.43;;;26.10;99.90;;;;;;5070379;28;20045;-64
2022/12/09 02:05:06;;;;;;;29.23;23.13;;;26.10;99.90;;;;;;5053854;28;20021;-65
2022/12/09 02:07:33;;;;;;;18.63;11.10;;;26.10;99.90;;;;;;5053532;28;20029;-65
2022/12/09 02:10:02;;;;;;;17.52;11.10;;;26.10;99.90;;;;;;5059517;28;20024;-64
2022/12/09 02:12:38;;;;;;;22.35;12.77;;;26.20;99.90;;;;;;5062986;28;20028;-66
2022/12/09 02:15:14;;;;;;;21.40;14.82;;;26.30;99.90;;;;;;5064110;28;20613;-65
2022/12/09 02:17:49;;;;;;;19.98;13.02;;;26.30;99.90;;;;;;5065542;28;20120;-65
2022/12/09 02:20:25;;;;;;;22.40;15.75;;;26.30;99.90;;;;;;5064543;28;20028;-65
2022/12/09 02:23:14;;;;;;;21.52;14.75;;;26.30;99.90;;;;;;5057942;28;20035;-65
2022/12/09 02:25:48;;;;;;;44.97;33.42;;;26.40;99.90;;;;;;5065032;28;20012;-65
2022/12/09 02:28:21;;;;;;;41.78;30.15;;;26.50;99.90;;;;;;5062956;28;20035;-66
2022/12/09 02:30:54;;;;;;;31.08;24.52;;;26.50;99.90;;;;;;5062549;28;20085;-65
2022/12/09 02:33:33;;;;;;;16.40;12.75;;;26.60;99.90;;;;;;5061908;28;20021;-65
2022/12/09 02:36:11;;;;;;;28.67;17.63;;;26.70;99.90;;;;;;5065316;28;20031;-65
2022/12/09 02:38:41;;;;;;;52.30;37.80;;;26.90;99.90;;;;;;5066241;28;20473;-65
2022/12/09 02:41:13;;;;;;;16.92;12.82;;;27.00;99.90;;;;;;5065924;28;20033;-65
2022/12/09 02:43:45;;;;;;;19.50;9.90;;;27.00;99.90;;;;;;5064846;28;20028;-65
2022/12/09 02:46:13;;;;;;;14.68;9.35;;;27.00;99.90;;;;;;5063994;28;20033;-66
2022/12/09 02:48:45;;;;;;;14.75;9.35;;;27.10;99.90;;;;;;5065749;28;20107;-65
2022/12/09 02:51:16;;;;;;;9.77;8.07;;;27.10;99.90;;;;;;5066913;28;20469;-65
2022/12/09 02:53:45;;;;;;;13.73;8.15;;;27.00;99.90;;;;;;5066955;28;20027;-64
2022/12/09 02:56:13;;;;;;;18.73;9.18;;;27.00;99.90;;;;;;5067087;28;20025;-65
2022/12/09 02:58:40;;;;;;;15.98;8.55;;;27.10;99.90;;;;;;5066668;28;20029;-65
2022/12/09 03:01:38;;;;;;;14.63;9.13;;;27.10;99.90;;;;;;5062983;28;20479;-65
2022/12/09 03:04:06;;;;;;;8.95;7.07;;;27.20;99.90;;;;;;5066198;28;20017;-65
2022/12/09 03:06:51;;;;;;;15.02;9.10;;;27.20;99.90;;;;;;5062744;28;20125;-64
2022/12/09 03:09:25;;;;;;;16.15;8.90;;;27.20;99.90;;;;;;5065837;28;20032;-65
2022/12/09 03:11:54;;;;;;;14.32;10.13;;;27.20;99.90;;;;;;5066716;28;20020;-65
2022/12/09 03:14:43;;;;;;;11.13;8.00;;;27.20;99.90;;;;;;5064456;28;20106;-64
2022/12/09 03:17:23;;;;;;;29.38;18.20;;;27.30;99.90;;;;;;5065192;28;20029;-65
2022/12/09 03:19:54;;;;;;;18.45;11.88;;;27.40;99.90;;;;;;5065357;28;20478;-65
2022/12/09 03:22:27;;;;;;;14.32;10.15;;;27.50;99.90;;;;;;5064014;28;20560;-65
2022/12/09 03:25:01;;;;;;;;;;;27.60;99.90;;;;;;5063839;28;20033;-65
2022/12/09 03:27:36;;;;;;;16.17;11.65;;;27.70;99.90;;;;;;5065812;28;20339;-65
2022/12/09 03:30:04;;;;;;;18.55;13.52;;;27.70;99.90;;;;;;5065684;28;20017;-66
2022/12/09 03:32:32;;;;;;;14.60;10.95;;;27.60;99.90;;;;;;5064429;28;20052;-65
2022/12/09 03:35:08;;;;;;;17.70;11.70;;;27.70;99.90;;;;;;5064271;28;20070;-65
2022/12/09 03:37:39;;;;;;;20.25;12.77;;;27.70;99.90;;;;;;5064038;28;20094;-65
2022/12/09 03:40:09;;;;;;;35.45;27.92;;;27.80;99.90;;;;;;5072919;28;20489;-65
2022/12/09 03:42:43;;;;;;;21.95;14.93;;;27.80;99.90;;;;;;5076084;28;20240;-64
2022/12/09 03:45:14;;;;;;;21.00;12.38;;;27.80;99.90;;;;;;5076003;28;20451;-64
2022/12/09 03:47:41;;;;;;;129.20;100.95;;;27.90;99.90;;;;;;5075758;28;20055;-65
2022/12/09 03:50:28;;;;;;;14.68;10.43;;;27.90;99.90;;;;;;5076150;28;20258;-64
2022/12/09 03:53:11;;;;;;;14.43;11.05;;;27.90;99.90;;;;;;5076053;28;20023;-64
2022/12/09 03:55:58;;;;;;;178.15;143.45;;;27.80;99.90;;;;;;5075477;28;20024;-64
2022/12/09 03:58:25;;;;;;;58.17;40.45;;;27.80;99.90;;;;;;5070158;28;20387;-64
2022/12/09 04:00:52;;;;;;;16.27;9.35;;;27.90;99.90;;;;;;5065898;28;20020;-64
2022/12/09 04:03:19;;;;;;;21.40;13.02;;;27.90;99.90;;;;;;5064332;28;20028;-64
2022/12/09 04:05:46;;;;;;;19.60;12.88;;;28.00;99.90;;;;;;5064034;28;20016;-65
2022/12/09 04:08:12;;;;;;;18.05;11.20;;;28.00;99.90;;;;;;5065549;28;20377;-64
2022/12/09 04:10:39;;;;;;;34.03;23.70;;;27.90;99.90;;;;;;5063483;28;20096;-64
2022/12/09 04:13:05;;;;;;;66.93;53.40;;;28.00;99.90;;;;;;5061173;28;20036;-64
2022/12/09 04:15:32;;;;;;;19.50;12.65;;;27.90;99.90;;;;;;5062476;23;20148;-63
2022/12/09 04:17:58;;;;;;;40.80;27.75;;;28.00;99.90;;;;;;5021039;28;20382;-63
2022/12/09 04:20:25;;;;;;;27.45;20.75;;;28.10;99.90;;;;;;5020883;28;20028;-64
2022/12/09 04:22:51;;;;;;;68.85;61.55;;;28.10;99.90;;;;;;5024710;28;20103;-64
2022/12/09 04:25:18;;;;;;;19.73;11.80;;;28.10;99.90;;;;;;5024711;28;20022;-64
2022/12/09 04:27:44;;;;;;;22.67;12.93;;;28.10;99.90;;;;;;5025055;28;20068;-64
2022/12/09 04:30:11;;;;;;;20.50;13.68;;;28.20;99.90;;;;;;5023371;28;20033;-63
2022/12/09 04:32:38;;;;;;;30.23;23.02;;;28.10;99.90;;;;;;5024815;28;20028;-64
2022/12/09 04:35:05;;;;;;;75.60;60.25;;;28.20;99.90;;;;;;5024206;28;20398;-64
2022/12/09 04:37:32;;;;;;;22.95;14.73;;;28.20;99.90;;;;;;5030906;28;20022;-66
2022/12/09 04:39:58;;;;;;;18.58;13.60;;;28.30;99.90;;;;;;5024335;28;20471;-65
2022/12/09 04:42:27;;;;;;;24.95;18.92;;;28.30;99.90;;;;;;5018328;28;20030;-66
2022/12/09 04:44:53;;;;;;;60.72;43.92;;;28.40;99.90;;;;;;5034530;28;20025;-65
2022/12/09 04:47:20;;;;;;;60.70;46.25;;;28.40;99.90;;;;;;5034546;28;20463;-65
2022/12/09 04:49:46;;;;;;;89.03;76.50;;;28.40;99.90;;;;;;5029372;28;20034;-66
2022/12/09 04:52:12;;;;;;;26.55;21.52;;;28.40;99.90;;;;;;5014376;28;20471;-66
2022/12/09 04:54:39;;;;;;;27.02;21.30;;;28.40;99.90;;;;;;5014327;28;20021;-65
2022/12/09 04:57:05;;;;;;;18.55;13.13;;;28.40;99.90;;;;;;5013923;28;20032;-65
2022/12/09 04:59:32;;;;;;;13.52;10.18;;;28.40;99.90;;;;;;5014315;28;20033;-65
2022/12/09 05:01:59;;;;;;;15.30;11.55;;;28.40;99.90;;;;;;5014441;28;20037;-65
2022/12/09 05:04:25;;;;;;;17.17;13.07;;;28.40;99.90;;;;;;5014345;28;20033;-66
2022/12/09 05:06:52;;;;;;;16.83;12.20;;;28.50;99.90;;;;;;5014049;28;20030;-65
2022/12/09 05:09:18;;;;;;;15.68;10.15;;;28.40;99.90;;;;;;5014505;28;20415;-65
2022/12/09 05:11:45;;;;;;;32.88;20.80;;;28.50;99.90;;;;;;5014045;28;20049;-66
2022/12/09 05:14:11;;;;;;;28.40;18.08;;;28.50;99.90;;;;;;5014324;28;20076;-65
2022/12/09 05:16:38;;;;;;;91.65;57.70;;;28.50;99.90;;;;;;5013585;28;20076;-66
2022/12/09 05:19:04;;;;;;;17.20;10.13;;;28.60;99.90;;;;;;5013649;28;20027;-65
2022/12/09 05:21:31;;;;;;;23.45;11.65;;;28.60;99.90;;;;;;5013703;28;20077;-65
2022/12/09 05:23:57;;;;;;;21.23;12.90;;;28.60;99.90;;;;;;5013891;28;20034;-64
2022/12/09 05:26:24;;;;;;;34.42;22.45;;;28.60;99.90;;;;;;5014637;28;20021;-65
2022/12/09 05:28:51;;;;;;;16.02;9.38;;;28.70;99.90;;;;;;5025108;28;20021;-64
2022/12/09 05:31:20;;;;;;;12.13;9.25;;;28.70;99.90;;;;;;5015386;28;20037;-65
2022/12/09 05:33:47;;;;;;;16.67;10.90;;;28.70;99.90;;;;;;5014620;28;20029;-65
2022/12/09 05:36:16;;;;;;;30.27;23.92;;;28.70;99.90;;;;;;5015115;28;20029;-65
2022/12/09 05:38:43;;;;;;;27.17;22.55;;;28.70;99.90;;;;;;5014912;28;20333;-65
2022/12/09 05:41:10;;;;;;;18.80;12.68;;;28.80;99.90;;;;;;5014311;28;20026;-65
2022/12/09 05:43:36;;;;;;;11.30;8.45;;;28.80;99.90;;;;;;5014374;28;20022;-64
2022/12/09 05:46:05;;;;;;;17.27;12.65;;;28.80;99.90;;;;;;5019758;28;20029;-64
2022/12/09 05:48:31;;;;;;;18.15;14.48;;;28.80;99.90;;;;;;5023348;28;20034;-65
2022/12/09 05:50:59;;;;;;;18.30;12.93;;;28.90;99.90;;;;;;5021316;28;20029;-66
2022/12/09 05:53:26;;;;;;;13.20;9.07;;;28.90;99.90;;;;;;5021941;28;20061;-65
2022/12/09 05:55:53;;;;;;;11.45;8.55;;;28.90;99.90;;;;;;5021585;28;20033;-65
2022/12/09 05:58:20;;;;;;;23.05;15.32;;;28.80;99.90;;;;;;5021779;28;20021;-64
2022/12/09 06:00:47;;;;;;;14.25;9.27;;;28.80;99.90;;;;;;5024758;28;20021;-65
2022/12/09 06:03:14;;;;;;;9.88;7.32;;;28.80;99.90;;;;;;5032370;28;20071;-66
2022/12/09 06:05:40;;;;;;;15.55;7.43;;;28.90;99.90;;;;;;5033093;28;20033;-67
2022/12/09 06:08:07;;;;;;;13.48;7.32;;;29.00;99.90;;;;;;5029744;28;20030;-63
2022/12/09 06:10:37;;;;;;;10.95;7.07;;;29.00;99.90;;;;;;5032143;28;20029;-66
2022/12/09 06:13:04;;;;;;;12.25;7.18;;;29.00;99.90;;;;;;5017150;28;20029;-66
2022/12/09 06:15:33;;;;;;;12.48;7.47;;;29.10;99.90;;;;;;5016987;28;20067;-66
2022/12/09 06:17:59;;;;;;;13.23;8.15;;;29.20;99.90;;;;;;5016639;28;20395;-66
2022/12/09 06:20:26;;;;;;;11.25;8.13;;;29.20;99.90;;;;;;5036481;28;20106;-63
2022/12/09 06:22:52;;;;;;;9.57;7.35;;;29.30;99.90;;;;;;5036829;28;20073;-64
2022/12/09 06:25:19;;;;;;;10.30;6.03;;;29.20;99.90;;;;;;5035771;28;20051;-64
2022/12/09 06:27:45;;;;;;;12.75;6.85;;;29.30;99.90;;;;;;5034783;28;20029;-63
2022/12/09 06:30:12;;;;;;;78.60;54.00;;;29.30;99.90;;;;;;5034622;28;20022;-63
2022/12/09 06:32:38;;;;;;;51.95;40.35;;;29.30;99.90;;;;;;5034562;28;20083;-64
2022/12/09 06:35:06;;;;;;;20.38;16.38;;;29.30;99.90;;;;;;5032906;28;20518;-66
2022/12/09 06:37:32;;;;;;;6.63;5.93;;;29.40;99.90;;;;;;5026719;28;20467;-64
2022/12/09 06:39:59;;;;;;;11.13;6.32;;;29.50;99.90;;;;;;5016713;28;20097;-66
2022/12/09 06:42:25;;;;;;;9.65;7.82;;;29.50;99.90;;;;;;5017096;28;20030;-64
2022/12/09 06:44:52;;;;;;;12.13;6.57;;;29.50;99.90;;;;;;5028728;28;20026;-65
2022/12/09 06:47:18;;;;;;;17.98;11.95;;;29.50;99.90;;;;;;5017663;28;20029;-65
2022/12/09 06:49:45;;;;;;;12.20;9.43;;;29.50;99.90;;;;;;5016870;28;20533;-63
2022/12/09 06:52:11;;;;;;;9.70;8.18;;;29.50;99.90;;;;;;5017559;28;20029;-63
2022/12/09 06:54:37;;;;;;;12.15;6.28;;;29.50;99.90;;;;;;5017579;28;20021;-66
2022/12/09 06:57:04;;;;;;;15.18;9.48;;;29.50;99.90;;;;;;5017375;28;20054;-64
2022/12/09 06:59:30;;;;;;;15.18;11.48;;;29.60;99.90;;;;;;5017407;28;20057;-66
2022/12/09 07:01:58;;;;;;;17.98;10.60;;;29.60;99.90;;;;;;5017418;28;20040;-66
2022/12/09 07:04:24;;;;;;;12.15;8.25;;;29.60;99.90;;;;;;5017287;28;20479;-65
2022/12/09 07:06:51;;;;;;;13.30;6.28;;;29.60;99.90;;;;;;5017338;28;20026;-65
2022/12/09 07:09:20;;;;;;;10.70;6.97;;;29.70;99.90;;;;;;5017410;28;20084;-65
2022/12/09 07:11:48;;;;;;;24.95;15.63;;;29.60;99.90;;;;;;5017025;28;20529;-66
2022/12/09 07:14:16;;;;;;;14.00;8.55;;;29.70;99.90;;;;;;5016280;28;20030;-68
2022/12/09 07:16:43;;;;;;;10.35;7.03;;;29.70;99.90;;;;;;5018582;28;20045;-66
2022/12/09 07:19:21;;;;;;;18.85;14.23;;;29.70;99.90;;;;;;5024292;28;20054;-66
2022/12/09 07:21:48;;;;;;;9.05;8.07;;;29.70;99.90;;;;;;5016904;28;20037;-66
2022/12/09 07:24:17;;;;;;;15.43;10.77;;;29.70;99.90;;;;;;5025990;28;20109;-65
2022/12/09 07:26:43;;;;;;;16.00;11.10;;;29.70;99.90;;;;;;5016076;28;20026;-64
2022/12/09 07:29:10;;;;;;;107.60;58.50;;;29.70;99.90;;;;;;5016303;28;20025;-65
2022/12/09 07:31:36;;;;;;;47.95;25.52;;;29.80;99.90;;;;;;5015771;28;20030;-66
2022/12/09 07:34:04;;;;;;;23.52;14.35;;;29.80;99.90;;;;;;5016008;28;20479;-66
2022/12/09 07:36:33;;;;;;;24.30;13.27;;;29.80;99.90;;;;;;5015906;28;20033;-65
2022/12/09 07:39:03;;;;;;;14.15;8.75;;;29.80;99.90;;;;;;5015674;28;20494;-66
2022/12/09 07:41:30;;;;;;;10.95;6.93;;;29.80;99.90;;;;;;5016168;28;20160;-68
2022/12/09 07:43:56;;;;;;;44.45;25.13;;;29.90;99.90;;;;;;5016770;28;20026;-65
2022/12/09 07:46:27;;;;;;;16.00;10.60;;;29.90;99.90;;;;;;5016307;28;20471;-65
2022/12/09 07:48:55;;;;;;;17.58;8.13;;;29.90;99.90;;;;;;5016414;28;20102;-65
2022/12/09 07:51:23;;;;;;;18.55;8.32;;;29.90;99.90;;;;;;5015707;28;20053;-65
2022/12/09 07:53:49;;;;;;;17.63;10.63;;;29.90;99.90;;;;;;5013972;28;20482;-67
2022/12/09 07:56:17;;;;;;;19.83;11.05;;;29.90;99.90;;;;;;5014850;28;20144;-65
2022/12/09 07:58:46;;;;;;;17.65;11.02;;;30.00;99.90;;;;;;5015698;28;20442;-66
2022/12/09 08:01:16;;;;;;;14.30;9.95;;;30.00;99.90;;;;;;5014426;28;20092;-66
2022/12/09 08:03:43;;;;;;;52.15;43.72;;;30.00;99.90;;;;;;5015996;28;20113;-66
2022/12/09 08:06:13;;;;;;;108.15;82.57;;;30.00;99.90;;;;;;5024865;28;20059;-66
2022/12/09 08:08:40;;;;;;;16.45;11.50;;;30.10;99.90;;;;;;5026027;28;20030;-67
2022/12/09 08:11:08;;;;;;;17.58;13.45;;;30.10;99.90;;;;;;5026444;28;20179;-65
2022/12/09 08:13:35;;;;;;;16.75;12.00;;;30.10;99.90;;;;;;5030929;28;20022;-65
2022/12/09 08:16:06;;;;;;;12.95;8.98;;;30.10;99.90;;;;;;5032589;28;20144;-66
2022/12/09 08:18:34;;;;;;;15.52;9.65;;;30.20;99.90;;;;;;5048607;28;20038;-65
2022/12/09 08:21:05;;;;;;;18.35;7.72;;;30.20;99.90;;;;;;5045624;28;20032;-66
2022/12/09 08:23:31;;;;;;;18.67;7.65;;;30.10;99.90;;;;;;5040022;28;20082;-65
2022/12/09 08:25:58;;;;;;;14.60;7.88;;;30.10;99.90;;;;;;5051291;28;20083;-65
2022/12/09 08:28:24;;;;;;;17.65;8.10;;;30.10;99.90;;;;;;5037851;28;20112;-67
2022/12/09 08:30:52;;;;;;;16.70;7.75;;;30.10;99.90;;;;;;5036665;28;20024;-69
2022/12/09 08:33:19;;;;;;;22.27;7.22;;;30.20;99.90;;;;;;5034444;28;20026;-71
2022/12/09 08:35:45;;;;;;;13.90;7.47;;;30.10;99.90;;;;;;5031509;28;20028;-68
2022/12/09 08:38:12;;;;;;;15.40;10.30;;;30.10;99.90;;;;;;5027880;28;20493;-71
2022/12/09 08:40:38;;;;;;;15.77;7.78;;;30.10;99.90;;;;;;5023781;28;20032;-71
2022/12/09 08:43:07;;;;;;;12.73;7.63;;;30.10;99.90;;;;;;5014734;28;20018;-70
2022/12/09 08:45:37;;;;;;;68.75;56.60;;;30.10;99.90;;;;;;5014480;28;20064;-69
2022/12/09 08:48:04;;;;;;;42.15;29.45;;;30.10;99.90;;;;;;5014657;28;20034;-69
2022/12/09 08:50:31;;;;;;;29.92;19.77;;;30.10;99.90;;;;;;5015046;28;20048;-69
2022/12/09 08:52:58;;;;;;;18.33;11.80;;;30.10;99.90;;;;;;5015618;28;20415;-71
2022/12/09 08:55:25;;;;;;;17.75;8.65;;;30.10;99.90;;;;;;5017980;28;20386;-71
2022/12/09 08:57:51;;;;;;;13.77;9.27;;;30.10;99.90;;;;;;5025745;28;20076;-72
2022/12/09 09:00:19;;;;;;;14.32;9.18;;;30.10;99.90;;;;;;5019715;28;20104;-71
2022/12/09 09:02:45;;;;;;;16.25;11.07;;;30.00;99.90;;;;;;5026921;28;20030;-72
2022/12/09 09:05:12;;;;;;;14.50;10.23;;;30.00;99.90;;;;;;5027182;28;20017;-70
2022/12/09 09:07:39;;;;;;;38.67;21.30;;;30.10;99.90;;;;;;5027977;28;20032;-72
2022/12/09 09:10:07;;;;;;;15.70;9.70;;;30.10;99.90;;;;;;5030150;28;20104;-72
2022/12/09 09:12:33;;;;;;;16.70;10.63;;;30.10;99.90;;;;;;5026901;28;20035;-70
2022/12/09 09:15:00;;;;;;;17.17;10.50;;;30.10;99.90;;;;;;5028645;28;20030;-70
2022/12/09 09:17:26;;;;;;;17.20;11.18;;;30.10;99.90;;;;;;5028723;28;20017;-71
2022/12/09 09:19:52;;;;;;;15.13;11.07;;;30.10;99.90;;;;;;5028922;28;20024;-71
2022/12/09 09:22:19;;;;;;;19.92;9.55;;;30.10;99.90;;;;;;5029160;28;20486;-71
2022/12/09 09:24:46;;;;;;;13.90;9.00;;;30.20;99.90;;;;;;5026658;28;20049;-69
2022/12/09 09:27:12;;;;;;;19.80;10.70;;;30.10;99.90;;;;;;5025843;28;20032;-73
2022/12/09 09:29:39;;;;;;;23.35;11.50;;;30.10;99.90;;;;;;5026138;28;20028;-68
2022/12/09 09:32:06;;;;;;;21.52;12.45;;;30.10;99.90;;;;;;5029479;28;20020;-70
2022/12/09 09:34:33;;;;;;;23.80;13.00;;;30.10;99.90;;;;;;5027247;28;20113;-70
2022/12/09 09:37:00;;;;;;;16.50;11.45;;;30.10;99.90;;;;;;5030794;28;20450;-71
2022/12/09 09:39:26;;;;;;;17.77;11.27;;;30.10;99.90;;;;;;5026244;28;20020;-71
2022/12/09 09:41:56;;;;;;;28.88;18.98;;;30.10;99.90;;;;;;5027656;28;20508;-73
2022/12/09 09:44:34;;;;;;;73.97;46.38;;;30.10;99.90;;;;;;5027218;28;20513;-66
2022/12/09 09:47:09;;;;;;;46.25;17.45;;;30.10;99.90;;;;;;5027719;28;20026;-70
2022/12/09 09:49:40;;;;;;;29.45;17.55;;;30.20;99.90;;;;;;5027382;28;20026;-66
2022/12/09 09:52:18;;;;;;;15.70;10.50;;;30.20;99.90;;;;;;5029783;28;20459;-66
2022/12/09 09:54:45;;;;;;;21.98;12.45;;;30.10;99.90;;;;;;5026671;28;20538;-69
2022/12/09 09:57:22;;;;;;;18.42;12.27;;;30.10;99.90;;;;;;5027332;28;20022;-67
2022/12/09 10:00:21;;;;;;;20.67;12.63;;;30.10;99.90;;;;;;5028041;28;20053;-67
2022/12/09 10:02:48;;;;;;;38.72;27.35;;;30.10;99.90;;;;;;5024843;28;20386;-67
2022/12/09 10:05:22;;;;;;;50.00;28.08;;;30.10;99.90;;;;;;5024825;28;20033;-69
2022/12/09 10:07:53;;;;;;;20.02;14.07;;;30.10;99.90;;;;;;5023451;28;20258;-69
2022/12/09 10:10:28;;;;;;;44.22;34.60;;;30.10;99.90;;;;;;5026068;28;20112;-65
2022/12/09 10:13:00;;;;;;;30.98;19.90;;;30.00;99.90;;;;;;5023410;28;20242;-64
2022/12/09 10:15:32;;;;;;;46.72;30.30;;;30.00;99.90;;;;;;5025343;28;20095;-64
2022/12/09 10:18:30;;;;;;;258.88;216.77;;;30.00;99.90;;;;;;5026256;28;20022;-67
2022/12/09 10:20:57;;;;;;;34.80;24.75;;;30.00;99.90;;;;;;4946455;29;20043;-66
2022/12/09 10:23:25;;;;;;;28.27;18.92;;;30.00;99.90;;;;;;4945276;29;20390;-65
2022/12/09 10:25:57;;;;;;;27.98;15.65;;;30.00;99.90;;;;;;4944951;29;20488;-66
2022/12/09 10:28:29;;;;;;;27.98;15.07;;;30.00;99.90;;;;;;4945361;29;20478;-68
2022/12/09 10:30:56;;;;;;;35.40;20.10;;;29.90;99.90;;;;;;4939621;29;20038;-66
2022/12/09 10:33:27;;;;;;;85.15;56.95;;;29.90;99.90;;;;;;4934951;29;20099;-68
2022/12/09 10:35:53;;;;;;;85.10;51.42;;;30.00;99.90;;;;;;4937852;29;20457;-68
2022/12/09 10:38:21;;;;;;;92.35;46.30;;;29.90;99.90;;;;;;4947855;29;20565;-67
2022/12/09 10:40:48;;;;;;;46.15;27.30;;;29.90;99.90;;;;;;4946239;28;20378;-67
2022/12/09 10:43:37;;;;;;;35.08;21.42;;;29.90;99.90;;;;;;4948075;29;20389;-67
2022/12/09 10:46:07;;;;;;;56.70;28.27;;;29.90;99.90;;;;;;4947566;29;20063;-66
2022/12/09 10:48:39;;;;;;;41.95;22.80;;;29.90;99.90;;;;;;4947697;29;20027;-66
2022/12/09 10:51:14;;;;;;;34.50;20.63;;;29.80;99.90;;;;;;4978360;28;20061;-67
2022/12/09 10:54:03;;;;;;;33.70;21.30;;;29.80;99.90;;;;;;5024265;28;20505;-67
2022/12/09 10:56:35;;;;;;;135.90;103.05;;;29.80;99.90;;;;;;5022104;28;20109;-68
2022/12/09 10:59:22;;;;;;;66.30;36.63;;;29.80;99.90;;;;;;5022034;28;20029;-69
2022/12/09 11:01:56;;;;;;;41.97;28.10;;;29.70;99.90;;;;;;5028769;28;20038;-68
2022/12/09 11:04:26;;;;;;;51.53;36.65;;;29.70;99.90;;;;;;5027944;28;20026;-69
2022/12/09 11:06:57;;;;;;;46.65;29.58;;;29.70;99.90;;;;;;5024685;28;20033;-68
2022/12/09 11:09:40;;;;;;;42.45;27.40;;;29.60;99.90;;;;;;5027644;28;20045;-65
2022/12/09 11:12:33;;;;;;;62.28;36.42;;;29.60;99.90;;;;;;5026620;28;20026;-66
2022/12/09 11:15:01;;;;;;;110.43;58.05;;;29.60;99.90;;;;;;5028012;28;20049;-67
2022/12/09 11:17:40;;;;;;;40.10;25.58;;;29.50;99.90;;;;;;5028252;28;20051;-67
2022/12/09 11:20:20;;;;;;;112.30;59.40;;;29.50;99.90;;;;;;5027728;28;20424;-65
2022/12/09 11:23:01;;;;;;;144.95;68.50;;;29.50;99.90;;;;;;5033541;28;20505;-65
2022/12/09 11:25:31;;;;;;;117.60;62.95;;;29.50;99.90;;;;;;5033698;28;20102;-66
2022/12/09 11:28:17;;;;;;;94.63;59.47;;;29.50;99.90;;;;;;5025811;28;20321;-66
2022/12/09 11:30:58;;;;;;;92.10;66.72;;;29.50;99.90;;;;;;4965500;28;20046;-66
2022/12/09 11:33:27;;;;;;;180.48;111.13;;;29.50;99.90;;;;;;4967586;28;20165;-65
2022/12/09 11:35:59;;;;;;;149.82;95.53;;;29.50;99.90;;;;;;4964828;28;20095;-66
2022/12/09 11:38:40;;;;;;;134.18;96.93;;;29.40;99.90;;;;;;4972756;28;20045;-68
2022/12/09 11:41:10;;;;;;;94.00;63.28;;;29.50;99.90;;;;;;4968402;28;20031;-66
2022/12/09 11:43:50;;;;;;;76.00;55.28;;;29.40;99.90;;;;;;4970798;28;20033;-67
2022/12/09 11:46:23;;;;;;;88.85;58.95;;;29.40;99.90;;;;;;4959563;28;20122;-65
2022/12/09 11:48:51;;;;;;;378.92;323.48;;;29.40;99.90;;;;;;4972498;28;20059;-66
2022/12/09 11:51:33;;;;;;;71.07;47.92;;;29.30;99.90;;;;;;4973094;28;20019;-65
2022/12/09 11:54:22;;;;;;;66.38;42.83;;;29.40;99.90;;;;;;4966814;28;20023;-66
2022/12/09 11:56:50;;;;;;;60.00;39.25;;;29.30;99.90;;;;;;4970602;28;20034;-66
2022/12/09 11:59:30;;;;;;;54.08;34.95;;;29.30;99.90;;;;;;4967976;28;20039;-66
2022/12/09 12:02:00;;;;;;;77.55;39.08;;;29.30;99.90;;;;;;4969061;28;20045;-70
2022/12/09 12:04:53;;;;;;;90.45;67.68;;;29.30;99.90;;;;;;4968667;28;20558;-68
2022/12/09 12:07:38;;;;;;;113.53;83.55;;;29.30;99.90;;;;;;4922644;29;20050;-66
2022/12/09 12:10:22;;;;;;;83.80;60.92;;;29.30;99.90;;;;;;4935208;29;20068;-68
2022/12/09 12:13:04;;;;;;;74.68;54.22;;;29.30;99.90;;;;;;4935351;29;20090;-68
2022/12/09 12:15:45;;;;;;;101.55;69.38;;;29.30;99.90;;;;;;4935069;29;20564;-69
2022/12/09 12:18:21;;;;;;;150.20;111.30;;;29.30;99.90;;;;;;4933602;29;20118;-67
2022/12/09 12:21:09;;;;;;;66.60;47.30;;;29.30;99.90;;;;;;4934924;29;20039;-66
2022/12/09 12:23:35;;;;;;;63.53;42.50;;;29.20;99.90;;;;;;4932709;29;20511;-68
2022/12/09 12:26:15;;;;;;;59.65;41.85;;;29.20;99.90;;;;;;4935073;29;20114;-67
2022/12/09 12:28:52;;;;;;;59.55;38.05;;;29.20;99.90;;;;;;4935100;29;20410;-67
2022/12/09 12:31:30;;;;;;;58.28;38.35;;;29.10;99.90;;;;;;4932425;29;20059;-67
2022/12/09 12:34:09;;;;;;;63.60;38.58;;;29.10;99.90;;;;;;4933470;29;20111;-66
2022/12/09 12:37:10;;;;;;;72.80;45.38;;;29.10;99.90;;;;;;4933152;29;20031;-67
2022/12/09 12:39:58;;;;;;;77.00;52.03;;;29.10;99.90;;;;;;4935494;29;20529;-67
2022/12/09 12:46:15;;;;;;;91.90;64.35;;;29.10;99.90;;;;;;4934899;29;20377;-68
2022/12/09 12:48:43;;;;;;;139.57;103.68;;;29.10;99.90;;;;;;4934314;29;20036;-67